Date,TemperatureHighF,TemperatureAvgF,TemperatureLowF,DewpointHighF,DewpointAvgF,DewpointLowF,HumidityHigh,HumidityAvg,HumidityLow,PressureMaxIn,PressureMinIn,WindSpeedMaxMPH,WindSpeedAvgMPH,GustSpeedMaxMPH,PrecipitationSumIn
2013-1-1,34.6,32.4,29.7,32.0,30.7,27.8,100,93,90,30.50,30.36,4,1,7,0.10
2013-1-2,44.1,31.5,23.6,35.7,27.0,22.0,99,85,53,30.37,30.22,2,0,5,0.01
2013-1-3,43.9,33.0,23.1,34.5,26.5,20.9,100,79,51,30.23,30.13,6,1,14,0.01
2013-1-4,44.3,41.5,37.4,41.0,39.1,35.8,94,91,87,30.31,30.19,3,1,5,0.00
2013-1-5,40.1,37.6,34.9,34.9,32.8,30.3,86,83,77,30.23,30.16,3,1,6,0.01
2013-1-6,42.9,41.4,36.4,41.2,38.7,32.6,98,90,85,30.23,30.03,5,2,10,0.32
2013-1-7,48.9,46.7,43.5,48.2,45.3,42.2,100,95,94,30.21,30.06,3,1,7,0.82
2013-1-8,51.3,49.3,44.4,49.3,47.6,43.3,100,94,89,30.07,29.89,8,2,14,0.30
2013-1-9,40.0,37.1,32.7,38.4,35.5,31.4,95,94,92,30.00,29.81,2,0,6,0.76
2013-1-10,42.0,35.6,30.5,37.9,33.8,29.2,96,93,82,30.12,29.99,4,0,6,0.02
2013-1-11,41.1,32.9,25.8,35.3,28.5,24.3,96,85,66,30.33,30.28,6,1,10,0.01
2013-1-12,39.1,29.5,23.8,33.0,26.6,22.0,95,89,71,30.44,30.33,3,0,5,0.00
2013-1-13,34.4,26.1,19.7,28.6,23.6,17.8,94,90,77,30.52,30.43,3,0,6,0.01
2013-1-14,32.6,30.3,27.4,32.0,28.1,25.1,100,91,89,30.58,30.51,3,1,5,0.02
2013-1-15,36.9,33.6,31.6,34.0,31.8,29.3,95,93,88,30.69,30.58,5,1,7,0.01
2013-1-16,34.7,32.9,31.2,32.2,31.0,29.7,100,93,90,30.68,30.51,4,1,7,0.00
2013-1-17,35.7,32.2,29.8,33.3,30.7,28.4,95,94,90,30.52,30.33,3,2,6,0.00
2013-1-18,43.7,33.3,26.6,37.4,30.4,25.1,96,90,74,30.34,30.26,4,1,6,0.01
2013-1-19,38.2,32.9,30.3,33.7,30.7,28.6,95,92,82,30.37,30.29,6,2,10,0.00
2013-1-20,40.7,34.4,30.3,35.2,31.2,28.7,94,88,77,30.38,30.26,3,1,7,0.00
2013-1-21,41.7,33.7,23.0,32.5,28.3,21.4,95,81,68,30.25,30.14,4,1,6,0.00
2013-1-22,38.9,35.9,34.1,30.0,28.8,27.3,84,75,68,30.11,29.93,4,2,7,0.00
2013-1-23,35.1,34.5,34.2,33.3,32.5,30.9,94,92,87,30.22,29.91,4,2,6,0.12
2013-1-24,42.2,38.1,34.4,40.9,36.2,32.9,95,93,87,30.25,30.10,5,1,11,0.20
2013-1-25,50.6,44.1,39.1,47.4,41.8,37.5,95,91,86,30.01,29.95,2,0,5,0.03
2013-1-26,45.9,41.9,39.1,42.6,39.8,37.8,95,92,84,30.09,29.96,1,0,3,0.18
2013-1-27,41.6,39.8,36.7,39.6,38.2,35.7,96,94,91,30.14,30.05,2,1,5,0.28
2013-1-28,43.2,41.8,39.0,41.9,40.5,38.0,96,95,93,30.19,30.12,4,1,15,0.55
2013-1-29,49.0,44.9,42.1,46.7,43.4,41.0,96,94,87,30.46,30.19,4,1,15,0.12
2013-1-30,50.8,48.2,46.6,48.8,46.5,45.2,96,94,91,30.44,30.41,3,1,6,0.28
2013-1-31,48.6,46.8,44.1,46.3,45.3,43.0,96,94,90,30.44,30.34,3,0,4,0.06
2013-2-1,51.5,47.2,43.2,45.6,42.9,40.8,91,85,77,30.35,30.30,6,3,10,0.00
2013-2-2,52.6,44.0,34.4,45.4,39.8,32.9,95,86,74,30.32,30.25,3,0,5,0.00
2013-2-3,46.3,44.2,34.8,42.6,41.6,33.4,95,91,86,30.32,30.25,2,0,6,0.00
2013-2-4,47.0,44.0,41.4,42.1,40.9,38.8,93,89,82,29.96,29.94,2,0,4,0.00
2013-2-5,53.7,48.1,43.5,45.3,42.4,40.5,91,81,62,30.01,29.89,8,3,17,0.10
2013-2-6,48.1,47.0,42.5,43.8,42.0,40.6,93,83,77,30.09,29.82,5,2,14,0.07
2013-2-7,49.4,40.6,30.3,39.3,34.7,28.3,93,80,60,30.19,30.01,6,1,9,0.00
2013-2-8,48.7,38.3,28.6,41.7,33.4,26.8,96,84,62,30.31,30.19,7,1,11,0.01
2013-2-9,48.4,45.0,37.6,43.5,41.2,35.5,92,87,79,30.31,30.25,3,0,5,0.01
2013-2-10,46.7,45.1,39.6,42.5,38.1,36.6,92,77,71,30.35,30.31,5,2,10,0.00
2013-2-11,47.6,44.0,42.7,42.3,41.6,40.9,95,91,79,30.38,30.35,3,1,5,0.05
2013-2-12,51.2,48.7,46.1,48.6,46.8,44.6,96,93,88,30.46,30.41,3,0,5,0.14
2013-2-13,52.2,45.3,34.4,46.0,40.2,32.9,95,83,71,30.53,30.45,6,2,9,0.02
2013-2-14,46.7,43.1,34.3,44.2,41.0,32.8,95,92,86,30.58,30.53,4,0,5,0.00
2013-2-15,57.8,50.9,40.3,47.9,44.6,38.1,93,79,68,30.41,30.20,7,3,12,0.00
2013-2-16,48.8,43.2,40.2,42.7,39.8,37.4,98,88,78,30.27,30.24,4,1,15,0.07
2013-2-17,50.0,44.4,38.6,41.8,38.5,36.6,96,80,63,30.30,30.15,5,1,9,0.00
2013-2-18,45.5,43.5,40.6,38.3,37.0,35.3,89,78,70,29.99,29.77,6,2,11,0.03
2013-2-19,52.9,45.8,33.1,41.2,37.1,30.8,91,72,54,30.00,29.78,5,2,10,0.00
2013-2-20,45.0,42.4,40.4,40.7,39.2,37.3,99,89,79,30.09,30.00,4,1,7,0.24
2013-2-21,45.0,42.3,39.0,41.7,40.1,37.6,95,92,86,30.16,30.09,4,1,10,0.28
2013-2-22,47.6,42.1,36.6,45.7,39.6,34.5,94,91,85,30.02,29.85,7,3,15,0.89
2013-2-23,48.3,40.4,33.8,43.2,36.2,32.3,95,85,71,30.44,30.29,11,2,14,0.33
2013-2-24,48.3,46.3,35.3,39.7,36.9,34.0,95,70,64,30.43,30.04,5,3,15,0.00
2013-2-25,50.9,41.9,36.5,42.4,37.4,34.4,93,84,65,30.37,30.19,9,3,23,0.42
2013-2-26,48.5,45.5,42.0,39.9,37.3,35.6,86,73,64,30.36,30.24,7,2,12,0.01
2013-2-27,50.8,47.9,41.3,44.2,42.4,39.7,94,81,74,30.31,30.24,6,2,12,0.02
2013-2-28,54.2,51.8,49.3,52.5,50.2,47.9,96,95,93,30.40,30.25,3,0,9,0.72
2013-3-1,58.6,54.0,46.4,53.8,51.1,44.8,95,90,78,30.43,30.33,4,1,10,0.06
2013-3-2,55.7,46.7,38.6,51.6,43.4,36.6,93,88,79,30.27,30.15,6,2,13,0.06
2013-3-3,53.7,45.0,34.4,42.4,38.3,32.6,94,79,60,30.30,30.27,6,2,16,0.03
2013-3-4,57.7,46.8,33.6,36.2,31.0,26.8,87,57,31,30.14,29.92,7,2,11,0.01
2013-3-5,48.6,40.6,32.2,41.9,37.2,29.1,94,88,73,29.93,29.73,5,1,12,0.16
2013-3-6,45.5,43.7,40.7,43.6,42.0,39.4,95,94,90,29.88,29.58,3,1,5,0.31
2013-3-7,57.3,49.4,38.2,43.0,39.3,35.6,91,70,48,30.07,30.01,5,2,11,0.01
2013-3-8,55.4,48.2,38.9,43.1,39.9,35.6,88,74,55,30.21,30.07,7,4,13,0.00
2013-3-9,59.0,50.0,38.2,45.3,40.3,35.0,93,70,52,30.51,30.43,4,2,9,0.00
2013-3-10,48.1,46.4,43.6,45.1,43.7,40.9,93,91,86,30.48,30.43,3,0,5,0.06
2013-3-11,54.9,51.1,45.4,48.3,46.9,44.1,95,86,74,30.40,30.25,4,1,8,0.04
2013-3-12,58.3,54.5,50.3,51.1,49.3,46.8,92,83,73,30.19,30.15,3,1,9,0.01
2013-3-13,59.3,56.2,52.3,50.7,48.8,46.8,88,76,69,30.22,30.10,4,1,9,0.03
2013-3-14,54.9,51.2,47.0,48.9,46.6,45.1,94,85,73,30.14,30.07,4,1,9,0.03
2013-3-15,63.3,54.7,47.0,53.0,48.7,45.1,95,81,65,30.23,30.18,6,2,13,0.00
2013-3-16,51.3,45.2,39.5,47.6,41.8,36.8,93,88,77,30.19,30.02,7,3,16,0.38
2013-3-17,50.7,44.6,38.8,41.9,37.5,33.9,94,77,59,30.30,30.11,8,3,23,0.27
2013-3-18,55.9,46.0,34.4,44.4,38.0,32.3,92,75,52,30.27,30.20,6,2,23,0.08
2013-3-19,48.5,41.6,32.7,45.3,37.8,30.6,94,87,73,30.20,29.66,4,1,10,0.25
2013-3-20,53.6,43.8,36.2,46.6,40.5,34.1,94,88,74,30.14,29.64,11,5,24,0.84
2013-3-21,49.1,41.2,36.6,41.6,37.3,33.8,94,86,71,30.30,30.23,11,3,18,0.29
2013-3-22,50.7,40.4,32.6,41.5,36.0,31.0,94,85,61,30.40,30.30,12,2,17,0.18
2013-3-23,54.2,44.2,34.6,38.2,33.3,28.3,90,68,41,30.41,30.30,4,1,9,0.00
2013-3-24,58.2,44.0,34.2,39.9,34.4,31.8,93,72,41,30.30,30.10,4,1,7,0.00
2013-3-25,65.9,56.3,40.8,41.4,39.4,36.2,89,55,37,30.06,29.91,3,1,7,0.00
2013-3-26,61.1,54.5,48.3,47.8,45.6,39.7,91,73,53,30.02,29.97,5,1,10,0.00
2013-3-27,66.3,56.2,46.3,49.0,46.2,42.3,95,71,46,29.97,29.90,6,2,10,0.07
2013-3-28,65.5,56.9,48.2,53.0,47.7,40.7,96,73,45,30.15,30.05,5,1,11,0.22
2013-3-29,68.7,56.9,46.7,52.9,47.9,44.8,94,74,48,30.23,30.15,5,1,11,0.01
2013-3-30,72.7,61.6,38.7,52.4,47.8,37.1,95,62,46,30.20,30.00,7,4,14,0.00
2013-3-31,79.4,66.7,51.7,51.9,48.5,45.6,84,54,31,30.01,29.88,7,2,16,0.00
2013-4-1,69.1,55.9,46.5,52.7,48.4,43.8,93,77,51,30.18,30.03,7,1,13,0.00
2013-4-2,61.9,55.5,47.2,51.0,48.6,43.8,89,78,64,30.22,30.16,5,2,10,0.00
2013-4-3,68.0,59.7,48.9,54.0,50.7,44.9,87,73,57,30.15,29.91,3,0,7,0.00
2013-4-4,59.0,53.7,51.3,55.5,50.7,47.1,94,90,77,29.92,29.67,6,1,16,0.42
2013-4-5,56.9,53.1,50.2,54.0,50.6,47.9,95,91,84,29.92,29.78,4,1,10,0.58
2013-4-6,59.6,51.0,43.4,49.7,45.1,41.2,94,81,59,29.97,29.71,10,3,18,0.58
2013-4-7,53.7,46.2,40.6,47.5,42.9,38.6,95,88,72,29.96,29.49,11,3,19,0.38
2013-4-8,55.8,49.3,40.9,46.9,42.6,38.5,92,78,62,30.31,30.13,8,2,15,0.00
2013-4-9,55.7,46.9,35.9,45.9,41.4,34.3,95,82,66,30.37,30.25,4,1,13,0.00
2013-4-10,59.6,52.7,47.5,51.3,45.8,41.4,93,78,61,30.33,30.07,10,4,17,0.27
2013-4-11,59.0,52.3,40.5,49.6,42.2,35.7,85,69,51,30.34,30.22,9,3,17,0.06
2013-4-12,52.7,47.1,39.4,45.0,42.8,37.5,93,86,69,30.07,29.82,7,1,12,0.23
2013-4-13,50.4,45.1,40.4,45.4,40.9,38.3,94,85,71,30.08,30.02,10,3,17,0.78
2013-4-14,56.5,43.5,37.3,44.2,39.5,35.4,95,86,58,30.08,29.96,7,1,15,0.29
2013-4-15,58.2,50.6,37.2,46.3,40.9,35.3,96,71,49,30.22,29.98,11,3,19,0.05
2013-4-16,60.1,54.2,40.5,47.7,40.1,32.7,90,61,37,30.40,30.19,8,3,16,0.01
2013-4-17,63.1,53.7,41.9,45.6,41.6,38.0,86,65,43,30.50,30.43,6,2,13,0.00
2013-4-18,58.9,52.6,47.5,48.5,46.2,42.3,93,79,61,30.49,30.30,4,1,9,0.03
2013-4-19,57.7,52.9,49.3,52.1,48.0,45.7,94,83,74,30.30,30.15,7,3,15,0.53
2013-4-20,59.6,53.1,45.8,48.0,45.0,41.6,89,74,63,30.35,30.30,9,3,15,0.08
2013-4-21,59.6,49.7,41.6,48.5,43.8,38.1,93,81,60,30.35,30.26,6,1,15,0.00
2013-4-22,65.0,51.3,37.5,43.6,37.6,30.2,93,64,35,30.48,30.35,9,3,15,0.00
2013-4-23,68.3,61.2,45.8,42.5,36.5,29.9,82,42,27,30.33,30.18,9,4,22,0.00
2013-4-24,73.5,63.1,41.8,45.7,38.5,32.1,86,44,24,30.29,30.04,9,3,16,0.00
2013-4-25,75.8,63.2,48.5,52.8,47.7,40.0,88,60,34,30.19,30.05,8,3,17,0.00
2013-4-26,78.4,65.2,48.5,53.0,44.7,38.1,88,50,28,30.27,30.18,5,2,12,0.00
2013-4-27,60.8,56.2,47.4,48.7,46.9,41.4,86,71,63,30.28,30.25,3,1,9,0.00
2013-4-28,57.7,52.9,50.0,47.3,45.8,43.9,90,77,62,30.14,30.07,3,1,9,0.08
2013-4-29,58.1,50.3,38.6,45.4,38.4,34.3,88,65,47,30.25,30.17,11,4,23,0.16
2013-4-30,58.6,51.8,39.2,42.8,36.8,33.2,80,58,41,30.48,30.31,9,4,18,0.00
2013-5-1,69.3,62.6,52.8,40.1,36.3,31.5,53,38,26,30.54,30.47,6,2,15,0.00
2013-5-2,78.3,68.1,52.4,46.5,42.8,37.3,66,42,24,30.42,30.28,9,4,18,0.00
2013-5-3,77.5,69.8,52.1,50.1,43.7,39.6,67,40,29,30.33,30.17,11,4,18,0.00
2013-5-4,81.9,66.6,45.3,52.4,45.5,39.1,90,51,29,30.17,29.92,11,4,21,0.00
2013-5-5,87.1,75.8,52.4,51.5,45.8,40.9,72,37,22,29.95,29.70,7,2,21,0.00
2013-5-6,67.8,67.8,67.8,54.3,54.3,53.5,62,62,62,29.88,29.88,3,2,6,0.00